Time;durP1;ratioP1;P1;durP2;ratioP2;P2;SDS_P1;SDS_P2;PMS_P1;PMS_P2;Temp;Humidity;BMP_temperature;BMP_pressure;BME280_temperature;BME280_humidity;BME280_pressure;Samples;Min_cycle;Max_cycle;Signal;HPM_P1;HPM_P2
2021/12/04 00:02:07;;;;;;;1.70;1.53;;;;;;;3.14;68.20;96986.50;5056816;28;20193;-73
2021/12/04 00:04:36;;;;;;;1.50;1.40;;;;;;;3.19;67.67;96991.97;5057168;28;20274;-72
2021/12/04 00:07:05;;;;;;;1.93;1.70;;;;;;;3.20;67.75;96989.16;5057507;28;20193;-71
2021/12/04 00:09:33;;;;;;;3.30;1.90;;;;;;;3.15;68.42;96982.88;5057455;28;20189;-71
2021/12/04 00:12:01;;;;;;;1.93;1.77;;;;;;;3.16;68.14;96979.25;5057416;28;20211;-71
2021/12/04 00:14:28;;;;;;;2.33;1.70;;;;;;;3.16;68.52;96971.38;5056935;28;20315;-71
2021/12/04 00:16:55;;;;;;;2.80;1.70;;;;;;;3.17;67.95;96965.91;5056851;28;20220;-71
2021/12/04 00:19:22;;;;;;;1.63;1.53;;;;;;;3.19;68.60;96963.91;5057220;28;20209;-71
2021/12/04 00:21:49;;;;;;;2.57;1.50;;;;;;;3.26;67.87;96948.16;5057215;28;20194;-71
2021/12/04 00:24:15;;;;;;;3.23;1.70;;;;;;;3.25;68.04;96951.81;5056818;28;20224;-71
2021/12/04 00:26:42;;;;;;;1.97;1.73;;;;;;;3.26;68.86;96948.97;5056770;28;20185;-71
2021/12/04 00:29:09;;;;;;;2.33;1.70;;;;;;;3.28;68.60;96936.44;5057140;28;20196;-71
2021/12/04 00:31:36;;;;;;;1.57;1.43;;;;;;;3.26;67.46;96937.66;5057115;28;20499;-71
2021/12/04 00:34:02;;;;;;;2.13;1.40;;;;;;;3.19;68.70;96944.72;5056971;28;20308;-72
2021/12/04 00:36:34;;;;;;;5.07;1.90;;;;;;;3.21;69.21;96938.25;5056677;28;20603;-71
2021/12/04 00:49:58;;;;;;;2.10;1.80;;;;;;;3.29;69.01;96924.13;5056469;28;20256;-71
2021/12/04 00:52:24;;;;;;;3.20;1.90;;;;;;;3.41;69.07;96919.88;5056798;28;20496;-71
2021/12/04 00:54:51;;;;;;;2.30;1.57;;;;;;;3.32;69.32;96924.53;5056667;28;20500;-72
2021/12/04 00:57:17;;;;;;;2.10;1.77;;;;;;;3.29;70.86;96909.16;5056665;28;20501;-72
2021/12/04 00:59:44;;;;;;;3.50;1.90;;;;;;;3.46;69.61;96904.31;5056724;28;20190;-72
2021/12/04 01:02:10;;;;;;;2.00;1.83;;;;;;;3.38;69.80;96899.25;5056343;28;20576;-71
2021/12/04 01:04:37;;;;;;;2.53;1.80;;;;;;;3.42;69.21;96885.53;5056498;28;20224;-72
2021/12/04 01:07:03;;;;;;;3.53;1.80;;;;;;;3.36;70.11;96875.03;5056247;28;20198;-72
2021/12/04 01:09:30;;;;;;;3.00;2.10;;;;;;;3.32;70.99;96879.06;5056216;28;20572;-72
2021/12/04 01:11:57;;;;;;;2.70;2.00;;;;;;;3.37;71.62;96876.63;5056356;28;20209;-72
2021/12/04 01:14:27;;;;;;;2.53;2.30;;;;;;;3.30;72.29;96870.59;5056411;28;20217;-72
2021/12/04 01:16:54;;;;;;;2.87;2.43;;;;;;;3.26;70.84;96864.13;5056111;28;20212;-72
2021/12/04 01:19:20;;;;;;;2.93;2.60;;;;;;;3.13;75.04;96858.88;5056301;28;20217;-72
2021/12/04 01:21:49;;;;;;;3.87;2.83;;;;;;;3.12;72.73;96862.50;5056431;28;20193;-73
2021/12/04 01:24:16;;;;;;;3.77;2.57;;;;;;;3.13;75.43;96864.94;5056051;28;20224;-72
2021/12/04 01:26:42;;;;;;;3.20;2.70;;;;;;;3.26;74.45;96853.63;5056386;28;20202;-73
2021/12/04 01:29:09;;;;;;;3.67;2.90;;;;;;;3.10;73.76;96851.38;5056398;28;20232;-69
2021/12/04 01:31:35;;;;;;;3.37;2.70;;;;;;;3.15;75.03;96847.16;5056066;28;20193;-70
2021/12/04 01:34:02;;;;;;;3.07;2.77;;;;;;;2.91;79.26;96844.31;5056278;28;20225;-70
2021/12/04 01:36:29;;;;;;;4.03;2.90;;;;;;;3.01;80.94;96840.28;5056284;28;20205;-70
2021/12/04 01:38:55;;;;;;;2.73;2.20;;;;;;;2.98;81.24;96838.06;5056170;28;20216;-71
2021/12/04 01:41:22;;;;;;;2.93;2.50;;;;;;;3.05;81.59;96840.69;5056779;28;20194;-70
2021/12/04 01:43:48;;;;;;;2.70;2.37;;;;;;;3.07;81.63;96834.22;5055847;28;20217;-70
2021/12/04 01:46:15;;;;;;;3.33;2.93;;;;;;;2.94;84.67;96838.66;5056163;28;20201;-70
2021/12/04 01:48:41;;;;;;;3.20;2.73;;;;;;;2.92;85.37;96840.66;5055815;28;20604;-70
2021/12/04 01:51:08;;;;;;;3.20;2.40;;;;;;;3.00;87.13;96829.97;5056067;28;20205;-70
2021/12/04 01:53:34;;;;;;;2.70;2.50;;;;;;;3.10;89.06;96833.00;5056036;28;20225;-70
2021/12/04 01:56:01;;;;;;;3.00;2.47;;;;;;;3.05;91.16;96822.31;5055814;28;20200;-70
2021/12/04 01:58:29;;;;;;;3.87;2.37;;;;;;;2.93;93.85;96823.94;5055892;28;20210;-70
2021/12/04 02:00:56;;;;;;;2.77;2.53;;;;;;;2.89;95.06;96820.09;5055766;28;20608;-70
2021/12/04 02:03:23;;;;;;;4.43;2.70;;;;;;;2.92;95.74;96815.25;5055952;28;20228;-70
2021/12/04 02:05:51;;;;;;;3.53;2.50;;;;;;;2.92;95.59;96810.00;5055743;28;20208;-70
2021/12/04 02:08:21;;;;;;;3.17;2.30;;;;;;;2.94;95.92;96794.06;5055726;28;20592;-70
2021/12/04 02:10:49;;;;;;;2.23;2.00;;;;;;;2.97;96.10;96796.25;5055997;28;20276;-70
2021/12/04 02:13:17;;;;;;;2.67;2.47;;;;;;;2.88;96.57;96794.84;5055553;28;20316;-73
2021/12/04 02:15:45;;;;;;;2.97;2.67;;;;;;;2.83;97.39;96787.56;5055785;28;20224;-73
2021/12/04 02:18:14;;;;;;;2.87;2.50;;;;;;;2.78;97.56;96781.31;5055558;28;20628;-73
2021/12/04 02:20:41;;;;;;;5.53;2.83;;;;;;;2.82;96.82;96777.28;5055924;28;20194;-73
2021/12/04 02:23:09;;;;;;;3.40;2.40;;;;;;;2.78;97.54;96774.25;5056262;28;20221;-73
2021/12/04 02:25:36;;;;;;;4.37;2.77;;;;;;;2.82;98.16;96772.84;5059572;28;20194;-73
2021/12/04 02:28:05;;;;;;;3.43;2.50;;;;;;;2.83;97.35;96768.38;5059487;28;20185;-73
2021/12/04 02:30:34;;;;;;;3.40;2.37;;;;;;;2.79;97.79;96762.75;5059435;28;20190;-73
2021/12/04 02:33:04;;;;;;;4.47;2.60;;;;;;;2.82;99.10;96759.72;5059286;28;20221;-73
2021/12/04 02:35:32;;;;;;;3.80;2.73;;;;;;;2.82;98.50;96756.28;5059349;28;20200;-73
2021/12/04 02:37:59;;;;;;;3.73;2.70;;;;;;;2.81;98.99;96752.06;5059211;28;20197;-70
2021/12/04 02:40:25;;;;;;;3.43;2.80;;;;;;;2.83;99.53;96753.47;5059277;28;20212;-71
2021/12/04 02:42:52;;;;;;;3.00;2.70;;;;;;;2.83;98.88;96748.22;5058807;28;20190;-70
2021/12/04 02:45:19;;;;;;;3.43;3.13;;;;;;;2.72;98.77;96745.41;5059102;28;20205;-70
2021/12/04 02:47:45;;;;;;;6.73;3.63;;;;;;;2.63;99.95;96741.34;5059137;28;20201;-70
2021/12/04 02:50:14;;;;;;;4.23;2.97;;;;;;;2.66;99.65;96740.97;5059104;28;20196;-70
2021/12/04 02:52:42;;;;;;;4.33;3.00;;;;;;;2.67;99.54;96734.69;5058922;28;20197;-70
2021/12/04 02:55:09;;;;;;;3.23;2.93;;;;;;;2.54;100.00;96716.31;5059026;28;20288;-70
2021/12/04 02:57:40;;;;;;;5.87;3.40;;;;;;;2.51;100.00;96721.97;5058941;28;20507;-70
2021/12/04 03:00:08;;;;;;;3.97;3.13;;;;;;;2.48;100.00;96717.13;5058877;28;20510;-70
2021/12/04 03:02:34;;;;;;;4.00;3.60;;;;;;;2.42;100.00;96708.25;5058779;28;20551;-70
2021/12/04 03:05:06;;;;;;;4.57;3.33;;;;;;;2.39;100.00;96706.00;5058616;28;20221;-70
2021/12/04 03:07:32;;;;;;;4.27;3.83;;;;;;;2.39;100.00;96706.00;5059518;28;20194;-70
2021/12/04 03:09:59;;;;;;;6.83;4.00;;;;;;;2.51;100.00;96703.59;5058354;28;20205;-70
2021/12/04 03:12:26;;;;;;;5.30;3.97;;;;;;;2.39;100.00;96702.59;5058572;28;20263;-70
2021/12/04 03:14:53;;;;;;;6.67;4.00;;;;;;;2.39;100.00;96697.38;5058501;28;20227;-70
2021/12/04 03:17:22;;;;;;;6.07;4.20;;;;;;;2.35;100.00;96699.56;5058090;28;20244;-70
2021/12/04 03:19:50;;;;;;;5.97;4.20;;;;;;;2.39;100.00;96684.25;5058386;28;20229;-70
2021/12/04 03:22:18;;;;;;;5.70;4.33;;;;;;;2.35;100.00;96677.78;5058173;28;20647;-70
2021/12/04 03:24:45;;;;;;;5.03;4.53;;;;;;;2.38;100.00;96674.75;5058340;28;20221;-70
2021/12/04 03:27:13;;;;;;;5.50;4.40;;;;;;;2.36;100.00;96667.09;5058406;28;20229;-70
2021/12/04 03:29:46;;;;;;;5.50;4.63;;;;;;;2.38;100.00;96651.97;5057935;28;20596;-71
2021/12/04 03:32:25;;;;;;;4.63;4.23;;;;;;;2.42;100.00;96649.75;5058263;28;20219;-71
2021/12/04 03:40:35;;;;;;;8.00;5.57;;;;;;;2.40;100.00;96631.56;5058109;28;20208;-70
2021/12/04 03:43:05;;;;;;;6.00;5.17;;;;;;;2.41;100.00;96629.78;5058060;28;20523;-70
2021/12/04 03:45:34;;;;;;;7.27;5.47;;;;;;;2.42;100.00;96629.56;5058047;28;20194;-70
2021/12/04 03:48:07;;;;;;;6.60;5.57;;;;;;;2.40;100.00;96625.53;5057611;28;20603;-70
2021/12/04 03:50:34;;;;;;;6.17;5.57;;;;;;;2.44;100.00;96621.50;5057935;28;20292;-71
2021/12/04 03:53:00;;;;;;;7.90;5.77;;;;;;;2.44;100.00;96603.94;5057471;28;20217;-70
2021/12/04 03:55:27;;;;;;;7.93;5.40;;;;;;;2.47;100.00;96605.34;5057833;28;20204;-70
2021/12/04 03:57:54;;;;;;;7.57;5.67;;;;;;;2.54;100.00;96601.75;5057767;28;20197;-73
2021/12/04 04:00:23;;;;;;;7.40;6.00;;;;;;;2.55;100.00;96597.28;5057318;28;20221;-73
2021/12/04 04:02:49;;;;;;;7.63;5.83;;;;;;;2.49;100.00;96591.03;5057286;28;20194;-73
2021/12/04 04:05:15;;;;;;;8.40;5.90;;;;;;;2.54;100.00;96596.50;5057631;28;20201;-73
2021/12/04 04:07:42;;;;;;;7.00;5.77;;;;;;;2.50;100.00;96583.97;5057532;28;20193;-73
2021/12/04 04:10:09;;;;;;;6.83;6.07;;;;;;;2.54;100.00;96582.56;5057467;28;20197;-73
2021/12/04 04:12:36;;;;;;;7.97;6.13;;;;;;;2.53;100.00;96575.69;5057101;28;20299;-73
2021/12/04 04:15:03;;;;;;;8.93;6.83;;;;;;;2.44;100.00;96572.47;5057281;28;20221;-73
2021/12/04 04:17:31;;;;;;;8.73;7.00;;;;;;;2.41;100.00;96567.66;5056891;28;20219;-73
2021/12/04 04:19:58;;;;;;;7.80;6.90;;;;;;;2.47;100.00;96563.38;5056797;28;20218;-73
2021/12/04 04:22:24;;;;;;;7.63;6.83;;;;;;;2.44;100.00;96564.59;5057123;28;20201;-73
2021/12/04 04:24:51;;;;;;;9.17;7.00;;;;;;;2.43;100.00;96563.00;5056822;28;20233;-73
2021/12/04 04:27:17;;;;;;;10.00;7.17;;;;;;;2.40;100.00;96552.13;5056873;28;20607;-73
2021/12/04 04:29:43;;;;;;;8.50;7.63;;;;;;;2.39;100.00;96550.50;5056818;28;20627;-74
2021/12/04 04:32:10;;;;;;;7.57;6.77;;;;;;;2.50;100.00;96542.81;5057079;28;20236;-73
2021/12/04 04:34:38;;;;;;;8.33;6.63;;;;;;;2.59;100.00;96543.41;5056680;28;20226;-73
2021/12/04 04:37:18;;;;;;;8.80;7.23;;;;;;;2.42;100.00;96531.72;5057002;28;20255;-73
2021/12/04 04:59:29;;;;;;;10.53;7.13;;;;;;;2.55;100.00;96516.78;5043038;28;20232;-73
2021/12/04 05:02:06;;;;;;;8.77;6.93;;;;;;;2.49;100.00;96516.81;5056932;28;20208;-73
2021/12/04 05:10:39;;;;;;;8.67;7.70;;;;;;;2.53;100.00;96510.13;5056604;28;20184;-73
2021/12/04 05:13:07;;;;;;;8.03;6.83;;;;;;;2.51;100.00;96512.16;5056383;28;20221;-73
2021/12/04 05:15:37;;;;;;;8.07;6.60;;;;;;;2.54;100.00;96502.06;5056288;28;20295;-73
2021/12/04 05:18:16;;;;;;;9.97;7.07;;;;;;;2.54;100.00;96496.81;5056192;28;20542;-73
2021/12/04 05:20:48;;;;;;;9.27;7.40;;;;;;;2.59;100.00;96494.38;5056027;28;20615;-73
2021/12/04 05:23:15;;;;;;;7.97;6.77;;;;;;;2.58;100.00;96497.22;5056492;28;20225;-73
2021/12/04 05:25:41;;;;;;;7.87;6.43;;;;;;;2.62;100.00;96493.16;5056055;28;20520;-73
2021/12/04 05:28:08;;;;;;;7.93;7.13;;;;;;;2.60;100.00;96479.44;5056351;28;20237;-73
2021/12/04 05:30:36;;;;;;;7.60;6.77;;;;;;;2.62;100.00;96483.44;5056280;28;20203;-73
2021/12/04 05:33:04;;;;;;;10.90;7.60;;;;;;;2.57;100.00;96482.50;5056139;28;20232;-73
2021/12/04 05:35:31;;;;;;;8.40;6.67;;;;;;;2.62;100.00;96480.81;5056239;28;20506;-73
2021/12/04 05:37:57;;;;;;;9.13;7.00;;;;;;;2.64;100.00;96476.19;5055843;28;20205;-73
2021/12/04 05:40:24;;;;;;;7.90;6.73;;;;;;;2.64;100.00;96478.81;5056063;28;20213;-73
2021/12/04 05:42:50;;;;;;;8.67;6.40;;;;;;;2.75;100.00;96477.38;5055774;28;20193;-73
2021/12/04 05:45:19;;;;;;;7.93;6.67;;;;;;;2.71;100.00;96471.72;5055991;28;20212;-73
2021/12/04 05:47:52;;;;;;;7.53;6.50;;;;;;;2.77;100.00;96470.09;5056057;28;20251;-73
2021/12/04 05:50:35;;;;;;;7.30;6.60;;;;;;;2.64;100.00;96470.13;5056723;28;20190;-73
2021/12/04 05:53:15;;;;;;;11.30;7.53;;;;;;;2.71;100.00;96470.94;5055773;28;20229;-73
2021/12/04 05:55:51;;;;;;;7.93;6.70;;;;;;;2.78;100.00;96464.63;5056023;28;20193;-73
2021/12/04 05:58:23;;;;;;;7.80;5.93;;;;;;;2.77;100.00;96465.66;5056005;28;20280;-73
2021/12/04 06:00:50;;;;;;;6.60;5.90;;;;;;;2.72;100.00;96462.84;5059849;28;20220;-73
2021/12/04 06:03:17;;;;;;;8.17;5.83;;;;;;;2.75;100.00;96454.53;5059800;28;20217;-73
2021/12/04 06:05:44;;;;;;;6.80;5.67;;;;;;;2.78;100.00;96459.38;5059848;28;20540;-73
2021/12/04 06:08:11;;;;;;;7.37;6.20;;;;;;;2.76;100.00;96461.41;5059478;28;20193;-73
2021/12/04 06:10:37;;;;;;;7.47;6.33;;;;;;;2.80;100.00;96461.81;5059749;28;20186;-73
2021/12/04 06:13:04;;;;;;;8.70;6.73;;;;;;;2.79;100.00;96460.16;5059726;28;20224;-73
2021/12/04 06:15:30;;;;;;;9.70;6.07;;;;;;;2.81;100.00;96451.09;5059602;28;20190;-73
2021/12/04 06:17:57;;;;;;;7.13;5.80;;;;;;;2.80;100.00;96438.19;5059744;28;20274;-73
2021/12/04 06:23:08;;;;;;;7.87;6.30;;;;;;;2.88;100.00;96446.63;5059369;28;20666;-73
2021/12/04 06:25:35;;;;;;;7.40;5.23;;;;;;;2.85;100.00;96448.84;5059164;28;20189;-73
2021/12/04 06:28:03;;;;;;;8.00;5.70;;;;;;;2.83;100.00;96450.88;5059317;28;20551;-73
2021/12/04 06:30:33;;;;;;;8.33;5.97;;;;;;;2.86;100.00;96448.66;5059073;28;20194;-72
2021/12/04 06:33:00;;;;;;;8.80;6.40;;;;;;;2.88;100.00;96427.44;5059272;28;20311;-73
2021/12/04 06:35:26;;;;;;;7.43;6.43;;;;;;;2.89;100.00;96439.56;5059336;28;20196;-73
2021/12/04 06:37:53;;;;;;;9.17;6.27;;;;;;;2.95;100.00;96428.22;5058944;28;20486;-73
2021/12/04 06:40:23;;;;;;;7.23;6.13;;;;;;;2.95;100.00;96433.47;5058969;28;20213;-73
2021/12/04 06:42:50;;;;;;;7.13;6.13;;;;;;;2.95;100.00;96430.84;5059573;28;20201;-73
2021/12/04 06:45:17;;;;;;;8.40;5.63;;;;;;;3.02;100.00;96421.91;5058810;28;20572;-73
2021/12/04 06:47:49;;;;;;;8.67;5.57;;;;;;;2.98;100.00;96430.41;5058930;28;20200;-73
2021/12/04 06:50:20;;;;;;;8.13;5.57;;;;;;;3.00;100.00;96433.63;5059428;28;20589;-73
2021/12/04 06:52:48;;;;;;;7.77;5.07;;;;;;;3.04;100.00;96416.44;5058915;28;20190;-73
2021/12/04 06:55:16;;;;;;;9.07;4.93;;;;;;;3.05;100.00;96420.66;5058884;28;20201;-73
2021/12/04 06:57:44;;;;;;;5.67;4.77;;;;;;;3.10;100.00;96415.59;5058732;28;20208;-73
2021/12/04 07:00:11;;;;;;;5.37;4.63;;;;;;;3.12;100.00;96403.84;5058760;28;20213;-73
2021/12/04 07:02:38;;;;;;;6.43;4.73;;;;;;;3.16;100.00;96414.75;5058457;28;20585;-73
2021/12/04 07:05:05;;;;;;;5.50;4.93;;;;;;;3.15;100.00;96400.81;5058629;28;20229;-73
2021/12/04 07:07:31;;;;;;;5.47;4.83;;;;;;;3.21;100.00;96402.59;5058689;28;20200;-73
2021/12/04 07:09:58;;;;;;;8.20;5.90;;;;;;;3.21;100.00;96409.66;5058036;28;20277;-73
2021/12/04 07:12:25;;;;;;;8.53;5.77;;;;;;;3.23;100.00;96410.25;5058315;28;20608;-74
2021/12/04 07:14:52;;;;;;;6.30;5.00;;;;;;;3.30;100.00;96409.19;5058080;28;20682;-73
2021/12/04 07:17:18;;;;;;;8.20;5.00;;;;;;;3.32;100.00;96401.91;5058064;28;20213;-74
2021/12/04 07:19:45;;;;;;;7.30;5.20;;;;;;;3.31;100.00;96405.56;5058380;28;20209;-74
2021/12/04 07:22:12;;;;;;;6.07;4.90;;;;;;;3.35;100.00;96411.19;5058413;28;20196;-74
2021/12/04 07:24:39;;;;;;;6.73;5.03;;;;;;;3.40;100.00;96411.34;5058286;28;20225;-74
2021/12/04 07:27:06;;;;;;;6.13;5.20;;;;;;;3.35;100.00;96404.09;5058300;28;20194;-74
2021/12/04 07:29:33;;;;;;;6.23;5.20;;;;;;;3.39;100.00;96397.41;5057975;28;20585;-73
2021/12/04 07:31:59;;;;;;;5.83;5.23;;;;;;;3.43;100.00;96395.94;5057967;28;20581;-74
2021/12/04 07:34:25;;;;;;;6.07;5.40;;;;;;;3.46;100.00;96390.28;5058018;28;20221;-74
2021/12/04 07:36:52;;;;;;;7.33;5.87;;;;;;;3.48;100.00;96405.84;5058081;28;20194;-74
2021/12/04 07:39:18;;;;;;;7.70;5.47;;;;;;;3.45;100.00;96391.31;5057819;28;20213;-73
2021/12/04 07:41:44;;;;;;;6.60;5.80;;;;;;;3.46;100.00;96397.34;5058115;28;20194;-73
2021/12/04 07:44:12;;;;;;;12.17;6.50;;;;;;;3.52;100.00;96391.25;5057975;28;20252;-74
2021/12/04 07:46:40;;;;;;;7.97;5.83;;;;;;;3.56;100.00;96387.16;5057897;28;20200;-74
2021/12/04 07:49:07;;;;;;;8.70;6.23;;;;;;;3.59;100.00;96377.03;5058721;28;20189;-73
2021/12/04 07:51:34;;;;;;;7.33;5.70;;;;;;;3.63;100.00;96380.03;5057813;28;20208;-74
2021/12/04 07:54:00;;;;;;;7.53;5.60;;;;;;;3.61;100.00;96389.97;5057721;28;20240;-74
2021/12/04 07:56:26;;;;;;;8.07;5.67;;;;;;;3.65;100.00;96397.19;5057658;28;20197;-74
2021/12/04 07:58:53;;;;;;;7.90;5.93;;;;;;;3.71;100.00;96395.53;5057682;28;20501;-73
2021/12/04 08:01:19;;;;;;;5.60;4.77;;;;;;;3.82;100.00;96382.47;5057632;28;20217;-74
2021/12/04 08:03:45;;;;;;;5.20;3.53;;;;;;;3.99;100.00;96387.97;5057210;28;20228;-74
2021/12/04 08:06:12;;;;;;;3.93;3.53;;;;;;;4.08;100.00;96389.28;5057582;28;20470;-74
2021/12/04 08:08:38;;;;;;;4.27;3.53;;;;;;;4.14;100.00;96389.22;5057563;28;20197;-74
2021/12/04 08:11:05;;;;;;;4.57;2.90;;;;;;;4.22;100.00;96393.38;5057533;28;20291;-73
2021/12/04 08:13:32;;;;;;;4.30;2.77;;;;;;;4.25;100.00;96385.84;5056960;28;20225;-74
2021/12/04 08:15:58;;;;;;;2.43;1.80;;;;;;;4.34;100.00;96381.09;5057163;28;20217;-74
2021/12/04 08:18:25;;;;;;;3.90;3.00;;;;;;;4.36;100.00;96384.31;5057283;28;20197;-74
2021/12/04 08:20:51;;;;;;;4.97;3.30;;;;;;;4.37;100.00;96378.00;5056760;28;20217;-74
2021/12/04 08:23:18;;;;;;;5.73;3.40;;;;;;;4.50;100.00;96380.50;5056861;28;20229;-74
2021/12/04 08:25:46;;;;;;;3.23;2.93;;;;;;;4.56;100.00;96379.63;5056724;28;20259;-73
2021/12/04 08:28:12;;;;;;;3.40;2.70;;;;;;;4.55;100.00;96378.81;5056782;28;20551;-74
2021/12/04 08:30:40;;;;;;;7.70;3.67;;;;;;;4.60;100.00;96372.88;5057074;28;20186;-74
2021/12/04 08:33:07;;;;;;;6.00;4.20;;;;;;;4.55;100.00;96370.91;5056800;28;20221;-74
2021/12/04 08:35:39;;;;;;;9.73;3.40;;;;;;;4.60;100.00;96376.31;5056886;28;20193;-74
2021/12/04 08:38:09;;;;;;;3.70;3.20;;;;;;;4.65;100.00;96373.03;5057282;28;20209;-74
2021/12/04 08:40:37;;;;;;;3.60;3.30;;;;;;;4.70;100.00;96381.06;5056511;28;20491;-75
2021/12/04 08:43:03;;;;;;;4.37;2.20;;;;;;;4.78;100.00;96370.19;5056717;28;20228;-74
2021/12/04 08:45:30;;;;;;;3.43;2.60;;;;;;;4.86;100.00;96362.00;5056406;28;20607;-74
2021/12/04 08:47:57;;;;;;;2.10;1.50;;;;;;;4.98;100.00;96363.63;5056555;28;20197;-74
2021/12/04 08:50:26;;;;;;;7.10;1.93;;;;;;;5.00;100.00;96368.66;5056459;28;20603;-74
2021/12/04 08:52:55;;;;;;;2.27;1.57;;;;;;;5.06;100.00;96360.69;5056332;28;20196;-74
2021/12/04 08:55:24;;;;;;;1.40;1.30;;;;;;;5.07;100.00;96366.75;5056662;28;20250;-75
2021/12/04 08:57:51;;;;;;;3.40;1.60;;;;;;;5.07;100.00;96370.19;5056578;28;20255;-74
2021/12/04 09:00:24;;;;;;;1.20;1.10;;;;;;;5.11;100.00;96366.06;5056605;28;20223;-74
2021/12/04 09:02:51;;;;;;;1.40;1.30;;;;;;;5.23;100.00;96371.34;5056402;28;20189;-72
2021/12/04 09:05:19;;;;;;;1.00;1.00;;;;;;;5.33;100.00;96366.34;5056228;28;20580;-72
2021/12/04 09:07:46;;;;;;;1.20;1.10;;;;;;;5.31;100.00;96361.31;5056500;28;20190;-72
2021/12/04 09:10:14;;;;;;;1.30;1.03;;;;;;;5.42;100.00;96357.09;5056088;28;20592;-72
2021/12/04 09:12:41;;;;;;;3.33;1.13;;;;;;;5.46;100.00;96366.13;5056254;28;20201;-75
2021/12/04 09:15:10;;;;;;;1.10;0.83;;;;;;;5.53;100.00;96358.91;5056197;28;20198;-75
2021/12/04 09:17:36;;;;;;;0.77;0.77;;;;;;;5.58;100.00;96359.03;5056208;28;20193;-74
2021/12/04 09:20:05;;;;;;;0.70;0.60;;;;;;;5.63;100.00;96356.50;5055839;28;20209;-71
2021/12/04 09:22:34;;;;;;;0.87;0.83;;;;;;;5.69;100.00;96358.22;5056334;28;20193;-71
2021/12/04 09:25:05;;;;;;;0.80;0.80;;;;;;;5.68;100.00;96360.06;5056154;28;20221;-71
2021/12/04 09:27:45;;;;;;;2.00;0.90;;;;;;;5.77;100.00;96358.69;5056148;28;20205;-71
2021/12/04 09:30:42;;;;;;;0.73;0.70;;;;;;;5.90;100.00;96355.88;5056269;28;20200;-71
2021/12/04 10:01:09;;;;;;;1.27;1.03;;;;;;;6.26;100.00;96321.28;5059564;28;20204;-71
2021/12/04 10:11:11;;;;;;;0.73;0.73;;;;;;;6.37;100.00;96315.16;5059336;28;20204;-70
2021/12/04 10:21:10;;;;;;;1.93;1.27;;;;;;;6.58;100.00;96282.03;5059518;28;20201;-70
2021/12/04 10:34:50;;;;;;;1.83;1.33;;;;;;;6.78;100.00;96256.78;5058848;28;20508;-70
2021/12/04 10:37:23;;;;;;;1.70;1.60;;;;;;;6.80;100.00;96248.63;5059084;28;20198;-69
2021/12/04 10:39:55;;;;;;;3.30;1.83;;;;;;;6.96;100.00;96251.28;5058830;28;20597;-69
2021/12/04 10:42:25;;;;;;;4.50;2.50;;;;;;;6.92;100.00;96244.84;5058976;28;20514;-73
2021/12/04 10:44:56;;;;;;;3.97;2.17;;;;;;;6.90;100.00;96235.56;5057751;28;20678;-73
2021/12/04 10:47:25;;;;;;;4.37;2.07;;;;;;;6.91;100.00;96234.53;5058651;28;20573;-73
2021/12/04 10:50:08;;;;;;;2.20;1.70;;;;;;;6.99;100.00;96224.38;5058834;28;20209;-73
2021/12/04 10:52:48;;;;;;;1.87;1.77;;;;;;;7.06;100.00;96226.88;5058533;28;20580;-73
2021/12/04 10:55:27;;;;;;;2.20;2.00;;;;;;;7.08;100.00;96216.84;5058861;28;20197;-74
2021/12/04 11:01:13;;;;;;;3.67;1.93;;;;;;;7.30;100.00;96213.22;5058657;28;20209;-74
2021/12/04 11:06:45;;;;;;;3.13;2.83;;;;;;;7.50;100.00;96202.94;5058244;28;20543;-74
2021/12/04 11:21:25;;;;;;;4.07;1.90;;;;;;;7.97;100.00;96167.00;5058150;28;20259;-73
2021/12/04 11:40:56;;;;;;;1.40;0.60;;;;;;;8.33;100.00;96139.88;5047193;28;20228;-72
2021/12/04 11:43:27;;;;;;;0.60;0.60;;;;;;;8.43;100.00;96140.00;5057789;28;20235;-74
2021/12/04 11:46:13;;;;;;;0.73;0.70;;;;;;;8.42;100.00;96146.31;5057443;28;20198;-74
2021/12/04 11:48:42;;;;;;;0.43;0.43;;;;;;;8.58;100.00;96147.25;5057839;28;20368;-74
2021/12/04 11:51:15;;;;;;;0.67;0.67;;;;;;;8.53;100.00;96141.91;5057730;28;20488;-74
2021/12/04 11:53:43;;;;;;;0.60;0.60;;;;;;;8.50;100.00;96134.47;5057566;28;20231;-74
2021/12/04 11:56:25;;;;;;;1.30;0.70;;;;;;;8.56;100.00;96128.19;5056231;28;20494;-74
2021/12/04 11:58:53;;;;;;;1.37;0.60;;;;;;;8.53;100.00;96124.19;5057311;28;20193;-74
2021/12/04 12:01:32;;;;;;;1.60;0.50;;;;;;;8.64;100.00;96117.91;5057352;28;20217;-74
2021/12/04 12:04:09;;;;;;;0.70;0.50;;;;;;;8.65;100.00;96105.47;5057128;28;20646;-74
2021/12/04 12:06:46;;;;;;;0.50;0.50;;;;;;;8.67;100.00;96108.66;5057103;28;20584;-70
2021/12/04 12:09:15;;;;;;;0.30;0.30;;;;;;;8.79;100.00;96096.03;5057433;28;20228;-70
2021/12/04 12:11:54;;;;;;;0.67;0.53;;;;;;;8.76;100.00;96097.34;5057315;28;20243;-71
2021/12/04 12:14:35;;;;;;;1.00;0.47;;;;;;;8.80;100.00;96092.31;5057286;28;20244;-70
2021/12/04 12:17:02;;;;;;;0.30;0.30;;;;;;;8.89;99.07;96080.19;5057012;28;20369;-70
2021/12/04 12:19:36;;;;;;;0.50;0.50;;;;;;;8.89;99.06;96083.66;5056690;28;20241;-70
2021/12/04 12:22:06;;;;;;;0.57;0.57;;;;;;;8.82;100.00;96074.34;5057168;28;20384;-71
2021/12/04 12:27:53;;;;;;;0.43;0.43;;;;;;;8.86;99.13;96080.69;5056620;28;20613;-70
2021/12/04 12:33:26;;;;;;;0.50;0.50;;;;;;;8.95;99.31;96068.56;5056631;28;20203;-70
2021/12/04 12:36:02;;;;;;;0.43;0.43;;;;;;;8.99;98.28;96074.94;5056930;28;20197;-70
2021/12/04 12:38:42;;;;;;;0.40;0.40;;;;;;;8.95;98.57;96068.56;5056873;28;20260;-71
2021/12/04 12:41:11;;;;;;;0.50;0.50;;;;;;;8.91;99.45;96072.81;5056632;28;20209;-71
2021/12/04 12:44:01;;;;;;;0.90;0.57;;;;;;;8.91;99.46;96068.28;5056444;28;20221;-70
2021/12/04 12:46:45;;;;;;;0.80;0.70;;;;;;;8.90;99.64;96066.69;5056794;28;20204;-70
2021/12/04 12:49:39;;;;;;;0.50;0.50;;;;;;;8.86;100.00;96070.91;5056477;28;20196;-70
2021/12/04 12:52:13;;;;;;;1.03;0.60;;;;;;;8.82;100.00;96071.69;5056252;28;20605;-70
2021/12/04 12:54:41;;;;;;;1.27;0.70;;;;;;;8.83;100.00;96066.13;5056605;28;20236;-70
2021/12/04 12:57:14;;;;;;;2.37;0.60;;;;;;;8.92;100.00;96069.88;5056206;28;20204;-70
2021/12/04 12:59:58;;;;;;;0.50;0.50;;;;;;;8.92;100.00;96059.28;5056095;28;20189;-70
2021/12/04 13:11:42;;;;;;;0.67;0.53;;;;;;;8.80;100.00;96044.63;5014268;28;20239;-70
2021/12/04 13:14:31;;;;;;;1.63;0.50;;;;;;;8.77;100.00;96048.59;5014220;28;20739;-70
2021/12/04 13:17:00;;;;;;;0.97;0.50;;;;;;;8.76;100.00;96046.19;5045182;28;20323;-70
2021/12/04 13:19:29;;;;;;;1.00;0.60;;;;;;;8.78;100.00;96052.84;5056039;28;20244;-70
2021/12/04 13:22:04;;;;;;;0.50;0.50;;;;;;;8.73;100.00;96049.38;5055869;28;20489;-70
2021/12/04 13:24:36;;;;;;;0.60;0.60;;;;;;;8.79;100.00;96054.44;5055701;28;20732;-70
2021/12/04 13:29:44;;;;;;;0.60;0.60;;;;;;;8.74;100.00;96045.66;5055612;28;20179;-70
2021/12/04 13:32:13;;;;;;;0.90;0.50;;;;;;;8.81;100.00;96040.94;5055783;28;20221;-70
2021/12/04 13:34:40;;;;;;;0.50;0.50;;;;;;;8.82;100.00;96045.97;5055561;28;20275;-70
2021/12/04 13:37:09;;;;;;;2.20;0.50;;;;;;;8.75;100.00;96047.25;5055717;28;20194;-70
2021/12/04 13:39:38;;;;;;;0.93;0.60;;;;;;;8.73;100.00;96039.56;5055750;28;20236;-70
2021/12/04 13:42:06;;;;;;;0.63;0.50;;;;;;;8.67;100.00;96043.25;5056032;28;20240;-70
2021/12/04 13:44:33;;;;;;;0.83;0.60;;;;;;;8.67;100.00;96030.00;5055803;28;20531;-70
2021/12/04 13:47:06;;;;;;;0.60;0.60;;;;;;;8.71;100.00;96031.09;5056169;28;20189;-71
2021/12/04 13:49:57;;;;;;;0.73;0.60;;;;;;;8.70;100.00;96044.59;5056070;28;20197;-70
2021/12/04 13:52:25;;;;;;;0.60;0.60;;;;;;;8.66;100.00;96046.16;5055991;28;20196;-70
2021/12/04 13:54:56;;;;;;;1.33;0.80;;;;;;;8.60;100.00;96039.22;5055756;28;20228;-70
2021/12/04 13:57:23;;;;;;;1.23;0.83;;;;;;;8.58;100.00;96038.66;5055882;28;20201;-70
2021/12/04 13:59:49;;;;;;;2.27;0.90;;;;;;;8.51;100.00;96049.47;5055857;28;20233;-70
2021/12/04 14:02:28;;;;;;;1.20;0.60;;;;;;;8.46;100.00;96059.25;5055753;28;20217;-70
2021/12/04 14:05:04;;;;;;;3.40;0.80;;;;;;;8.46;100.00;96062.69;5055390;28;20670;-69
2021/12/04 14:07:31;;;;;;;1.43;0.70;;;;;;;8.53;100.00;96063.28;5055892;28;20208;-70
2021/12/04 14:09:58;;;;;;;2.70;0.90;;;;;;;8.43;100.00;96070.34;5055848;28;20201;-70
2021/12/04 14:12:24;;;;;;;2.50;1.00;;;;;;;8.35;100.00;96068.16;5055390;28;20189;-71
2021/12/04 14:14:50;;;;;;;1.00;0.60;;;;;;;8.32;100.00;96058.09;5055613;28;20221;-70
2021/12/04 14:17:19;;;;;;;0.70;0.60;;;;;;;8.39;100.00;96064.75;5055524;28;20220;-71
2021/12/04 14:19:46;;;;;;;2.20;0.70;;;;;;;8.37;100.00;96069.50;5056443;28;20604;-70